Time;durP1;ratioP1;P1;durP2;ratioP2;P2;SDS_P1;SDS_P2;PMS_P1;PMS_P2;Temp;Humidity;BMP_temperature;BMP_pressure;BME280_temperature;BME280_humidity;BME280_pressure;Samples;Min_cycle;Max_cycle;Signal;HPM_P1;HPM_P2
2023/09/15 00:01:57;;;;;;;90.35;86.15;;;;;;;22.92;45.32;101875.47;5040375;28;20512;-77
2023/09/15 00:04:22;;;;;;;92.18;87.75;;;;;;;22.90;45.57;101878.50;5030067;28;20044;-77
2023/09/15 00:06:48;;;;;;;91.35;87.00;;;;;;;22.89;45.42;101874.13;5039738;28;20034;-77
2023/09/15 00:09:18;;;;;;;92.03;87.45;;;;;;;22.88;45.56;101868.91;5038372;28;20042;-76
2023/09/15 00:11:47;;;;;;;95.07;90.57;;;;;;;22.86;45.54;101869.22;5038923;28;20063;-76
2023/09/15 00:14:14;;;;;;;90.95;86.55;;;;;;;22.83;45.53;101869.81;5038303;28;20043;-76
2023/09/15 00:16:42;;;;;;;95.40;90.60;;;;;;;22.83;45.11;101872.59;5048065;28;20041;-76
2023/09/15 00:19:13;;;;;;;91.20;86.82;;;;;;;22.80;45.33;101864.91;5015804;28;20040;-76
2023/09/15 00:21:38;;;;;;;91.97;87.60;;;;;;;22.79;45.64;101865.22;5051901;28;20056;-76
2023/09/15 00:24:05;;;;;;;91.53;87.22;;;;;;;22.77;45.38;101870.19;5041855;28;20025;-77
2023/09/15 00:26:32;;;;;;;88.78;84.50;;;;;;;22.76;45.54;101865.81;5039823;28;20103;-77
2023/09/15 00:29:02;;;;;;;88.35;84.13;;;;;;;22.75;45.28;101864.16;5032916;28;20033;-76
2023/09/15 00:31:28;;;;;;;90.20;85.88;;;;;;;22.73;45.10;101866.38;5037371;28;20041;-76
2023/09/15 00:33:53;;;;;;;93.15;88.60;;;;;;;22.72;45.04;101865.56;5032334;28;20034;-76
2023/09/15 00:36:18;;;;;;;92.10;87.28;;;;;;;22.69;45.60;101864.22;5044049;28;20030;-76
2023/09/15 00:38:44;;;;;;;90.40;86.07;;;;;;;22.68;45.18;101859.84;5033947;28;20083;-75
2023/09/15 00:41:09;;;;;;;91.28;86.60;;;;;;;22.67;45.58;101860.94;5044749;28;20082;-75
2023/09/15 00:43:35;;;;;;;87.93;83.80;;;;;;;22.66;45.21;101853.00;5033115;28;20029;-76
2023/09/15 00:46:02;;;;;;;88.38;84.18;;;;;;;22.65;45.56;101856.84;5038084;28;20056;-75
2023/09/15 00:48:28;;;;;;;89.03;84.80;;;;;;;22.63;45.00;101861.88;5035058;28;20033;-75
2023/09/15 00:50:54;;;;;;;88.20;83.95;;;;;;;22.61;45.04;101855.84;5040367;28;20075;-75
2023/09/15 00:53:21;;;;;;;90.88;86.53;;;;;;;22.60;45.37;101851.41;5040471;28;20520;-76
2023/09/15 00:55:51;;;;;;;91.45;87.00;;;;;;;22.59;45.00;101850.59;5037298;28;20037;-76
2023/09/15 00:58:19;;;;;;;90.55;86.05;;;;;;;22.57;45.12;101852.03;5033894;28;20116;-78
2023/09/15 01:00:45;;;;;;;90.40;85.95;;;;;;;22.56;45.21;101853.16;5036305;28;20041;-78
2023/09/15 01:03:18;;;;;;;90.60;86.10;;;;;;;22.55;44.95;101859.75;5034557;28;20029;-78
2023/09/15 01:05:45;;;;;;;88.75;83.97;;;;;;;22.53;45.31;101845.47;5023750;28;20462;-78
2023/09/15 01:08:11;;;;;;;90.75;86.40;;;;;;;22.52;45.22;101847.41;5043435;28;20531;-78
2023/09/15 01:10:36;;;;;;;88.40;84.20;;;;;;;22.50;44.97;101846.06;5041671;28;20021;-78
2023/09/15 01:13:02;;;;;;;91.60;86.97;;;;;;;22.49;45.61;101849.94;5021744;28;20029;-78
2023/09/15 01:15:41;;;;;;;87.65;83.40;;;;;;;22.45;45.48;101846.94;5035225;28;20499;-78
2023/09/15 01:18:31;;;;;;;89.63;84.85;;;;;;;22.43;45.26;101838.19;5038882;28;20470;-78
2023/09/15 01:21:18;;;;;;;89.07;84.68;;;;;;;22.41;45.31;101835.72;5039518;28;20053;-80
2023/09/15 01:24:21;;;;;;;90.22;85.90;;;;;;;22.37;45.38;101837.41;5038551;28;20049;-78
2023/09/15 01:26:49;;;;;;;86.45;82.35;;;;;;;22.35;45.49;101830.56;5047871;28;20083;-78
2023/09/15 01:29:29;;;;;;;86.78;82.55;;;;;;;22.33;45.36;101830.88;5029391;28;20060;-77
2023/09/15 01:31:57;;;;;;;86.35;82.15;;;;;;;22.33;45.36;101832.81;5026396;28;20116;-77
2023/09/15 01:34:22;;;;;;;87.15;82.72;;;;;;;22.32;45.19;101833.91;5048136;28;20109;-77
2023/09/15 01:36:47;;;;;;;87.43;82.82;;;;;;;22.30;45.38;101825.97;5049480;28;20129;-78
2023/09/15 01:39:13;;;;;;;86.50;82.18;;;;;;;22.29;45.32;101824.31;5044843;28;20032;-78
2023/09/15 01:41:38;;;;;;;89.88;85.43;;;;;;;22.27;45.15;101826.53;5046187;28;20130;-79
2023/09/15 01:44:03;;;;;;;87.60;83.47;;;;;;;22.27;45.39;101817.47;5036691;28;20040;-79
2023/09/15 01:46:29;;;;;;;89.72;85.32;;;;;;;22.25;45.22;101824.09;5009587;28;20080;-79
2023/09/15 01:48:56;;;;;;;89.75;84.65;;;;;;;22.25;45.41;101820.50;5058060;28;20092;-79
2023/09/15 01:51:22;;;;;;;85.53;81.32;;;;;;;22.23;44.90;101820.00;5046160;28;20071;-79
2023/09/15 01:53:51;;;;;;;85.93;81.68;;;;;;;22.22;45.33;101821.09;5029979;28;20037;-78
2023/09/15 01:56:18;;;;;;;87.40;83.10;;;;;;;22.20;45.32;101818.66;5045856;28;20123;-78
2023/09/15 01:58:44;;;;;;;84.93;80.72;;;;;;;22.19;45.04;101816.16;5042531;28;20037;-78
2023/09/15 02:01:09;;;;;;;86.55;82.38;;;;;;;22.18;45.13;101817.28;5042720;28;20045;-79
2023/09/15 02:03:35;;;;;;;89.60;85.28;;;;;;;22.16;45.29;101816.75;5034113;28;20039;-79
2023/09/15 02:06:04;;;;;;;87.43;83.15;;;;;;;22.14;45.44;101810.72;5015056;28;20115;-78
2023/09/15 02:08:30;;;;;;;86.22;82.10;;;;;;;22.13;44.98;101817.34;5027549;28;20080;-79
2023/09/15 02:10:56;;;;;;;87.78;83.43;;;;;;;22.10;44.96;101816.00;5048320;28;20381;-78
2023/09/15 02:13:21;;;;;;;86.38;82.07;;;;;;;22.09;44.96;101821.81;5036326;28;20087;-79
2023/09/15 02:15:46;;;;;;;85.10;80.80;;;;;;;22.09;45.12;101821.81;5032059;28;20044;-76
2023/09/15 02:18:12;;;;;;;84.78;80.70;;;;;;;22.07;45.28;101821.28;5019277;28;20112;-79
2023/09/15 02:20:37;;;;;;;85.55;81.35;;;;;;;22.04;45.35;101818.00;5047379;28;20057;-77
2023/09/15 02:23:03;;;;;;;86.05;81.75;;;;;;;22.03;45.09;101816.38;5039373;28;20040;-78
2023/09/15 02:25:33;;;;;;;85.32;81.32;;;;;;;22.02;45.10;101808.38;5041046;28;20033;-78
2023/09/15 02:27:59;;;;;;;87.80;83.63;;;;;;;21.99;45.18;101804.28;5035216;28;20382;-79
2023/09/15 02:30:24;;;;;;;86.25;82.05;;;;;;;21.98;45.35;101801.84;5027135;28;20037;-80
2023/09/15 02:32:50;;;;;;;87.63;83.32;;;;;;;21.96;45.31;101802.13;5034558;28;20377;-76
2023/09/15 02:35:15;;;;;;;84.50;80.30;;;;;;;21.94;44.82;101803.53;5024511;28;20030;-80
2023/09/15 02:37:40;;;;;;;83.35;79.25;;;;;;;21.92;45.33;101803.81;5015824;28;20037;-78
2023/09/15 02:40:07;;;;;;;85.65;81.30;;;;;;;21.91;44.94;101799.44;5031771;28;20497;-79
2023/09/15 02:42:35;;;;;;;87.22;83.07;;;;;;;21.89;45.19;101807.16;5028125;28;20044;-78
2023/09/15 02:45:01;;;;;;;86.47;82.18;;;;;;;21.88;44.89;101802.78;5027574;28;20469;-77
2023/09/15 02:47:29;;;;;;;82.60;78.60;;;;;;;21.87;45.20;101801.13;5033476;28;20045;-77
2023/09/15 02:49:55;;;;;;;86.10;81.63;;;;;;;21.85;45.19;101802.53;5043944;28;20029;-77
2023/09/15 02:52:20;;;;;;;87.75;83.47;;;;;;;21.84;44.85;101801.72;5050090;28;20083;-79
2023/09/15 02:54:48;;;;;;;83.40;79.50;;;;;;;21.81;45.28;101797.63;5052165;28;20025;-77
2023/09/15 02:57:13;;;;;;;83.43;79.25;;;;;;;21.79;44.79;101802.59;5040926;28;20469;-79
2023/09/15 02:59:38;;;;;;;85.53;81.22;;;;;;;21.78;45.09;101800.97;5028392;28;20047;-79
2023/09/15 03:02:04;;;;;;;85.15;80.63;;;;;;;21.77;45.00;101801.25;5041658;28;20056;-79
2023/09/15 03:04:29;;;;;;;82.47;78.15;;;;;;;21.76;45.09;101799.63;5050878;28;20409;-78
2023/09/15 03:06:55;;;;;;;83.68;79.47;;;;;;;21.75;44.74;101798.81;5037783;28;20045;-78
2023/09/15 03:09:20;;;;;;;83.38;79.28;;;;;;;21.72;44.80;101793.91;5037690;28;20103;-78
2023/09/15 03:11:46;;;;;;;84.25;80.15;;;;;;;21.71;45.21;101794.19;5046926;28;20108;-79
2023/09/15 03:14:12;;;;;;;80.85;76.85;;;;;;;21.69;45.09;101794.47;5032802;28;20389;-79
2023/09/15 03:16:41;;;;;;;76.30;72.32;;;;;;;21.69;45.13;101790.91;5038234;28;20182;-77
2023/09/15 03:19:07;;;;;;;80.15;76.05;;;;;;;21.67;45.08;101787.63;5035483;28;20038;-79
2023/09/15 03:21:33;;;;;;;79.60;75.70;;;;;;;21.65;44.83;101789.88;5035354;28;20052;-79
2023/09/15 03:24:00;;;;;;;80.50;76.60;;;;;;;21.64;45.30;101782.72;5033233;28;20121;-80
2023/09/15 03:26:25;;;;;;;81.28;77.20;;;;;;;21.61;44.76;101778.63;5036910;28;20410;-80
2023/09/15 03:28:50;;;;;;;79.93;75.95;;;;;;;21.60;45.12;101777.00;5031699;28;20037;-78
2023/09/15 03:31:16;;;;;;;78.50;74.65;;;;;;;21.59;45.02;101778.09;5022377;28;20116;-78
2023/09/15 03:33:42;;;;;;;77.70;73.82;;;;;;;21.56;45.10;101776.75;5045910;28;20048;-78
2023/09/15 03:36:07;;;;;;;79.93;76.00;;;;;;;21.55;45.14;101786.13;5041496;28;20036;-79
2023/09/15 03:38:33;;;;;;;80.75;76.65;;;;;;;21.53;44.86;101782.84;5022543;28;20029;-80
2023/09/15 03:40:59;;;;;;;80.07;75.95;;;;;;;21.52;44.99;101772.97;5049290;28;20112;-79
2023/09/15 03:43:24;;;;;;;78.60;74.80;;;;;;;21.51;45.07;101768.56;5042189;28;20078;-79
2023/09/15 03:45:52;;;;;;;76.47;72.78;;;;;;;21.49;44.74;101772.72;5044659;28;20047;-79
2023/09/15 03:48:17;;;;;;;78.65;74.50;;;;;;;21.46;45.06;101768.59;5038369;28;20030;-77
2023/09/15 03:50:44;;;;;;;78.30;74.47;;;;;;;21.46;45.16;101774.09;5032515;28;20049;-79
2023/09/15 03:53:09;;;;;;;79.40;75.15;;;;;;;21.45;45.01;101774.41;5044389;28;20068;-79
2023/09/15 03:55:35;;;;;;;77.93;74.22;;;;;;;21.43;44.84;101771.13;5064012;28;20124;-79
2023/09/15 03:58:02;;;;;;;79.43;75.38;;;;;;;21.41;44.67;101770.59;5038377;28;20616;-79
2023/09/15 04:00:28;;;;;;;77.50;73.65;;;;;;;21.39;44.68;101768.97;5032310;28;20044;-79
2023/09/15 04:02:54;;;;;;;79.07;75.22;;;;;;;21.38;45.23;101769.22;5042402;28;20028;-77
2023/09/15 04:05:19;;;;;;;77.80;73.82;;;;;;;21.37;45.09;101764.84;5043379;28;20389;-78
2023/09/15 04:07:45;;;;;;;79.82;75.55;;;;;;;21.34;44.89;101760.75;5035198;28;20041;-79
2023/09/15 04:10:11;;;;;;;82.35;78.18;;;;;;;21.33;45.14;101764.59;5040329;28;20156;-77
2023/09/15 04:12:37;;;;;;;78.47;74.28;;;;;;;21.32;44.95;101760.22;5037868;28;20030;-78
2023/09/15 04:15:04;;;;;;;79.00;74.95;;;;;;;21.31;44.67;101755.00;5038092;28;20041;-77
2023/09/15 04:17:30;;;;;;;77.13;73.20;;;;;;;21.29;45.15;101757.22;5045593;28;20029;-79
2023/09/15 04:19:55;;;;;;;78.68;74.82;;;;;;;21.27;45.19;101753.94;5045301;28;20060;-78
2023/09/15 04:22:21;;;;;;;77.68;73.60;;;;;;;21.25;45.14;101754.25;5019781;28;20497;-79
2023/09/15 04:24:46;;;;;;;78.85;75.05;;;;;;;21.24;44.93;101760.81;5041919;28;20032;-78
2023/09/15 04:27:12;;;;;;;79.28;75.00;;;;;;;21.22;44.74;101754.81;5048444;28;20041;-78
2023/09/15 04:29:56;;;;;;;77.18;73.30;;;;;;;21.18;44.91;101751.81;5030434;28;20057;-78
2023/09/15 04:32:22;;;;;;;75.32;71.53;;;;;;;21.18;45.16;101753.75;5034012;28;20393;-78
2023/09/15 04:34:52;;;;;;;75.60;71.90;;;;;;;21.16;44.60;101750.47;5052964;28;20458;-78
2023/09/15 04:37:18;;;;;;;76.85;72.97;;;;;;;21.14;44.95;101748.03;5017408;28;20065;-78
2023/09/15 04:39:43;;;;;;;79.22;75.30;;;;;;;21.14;44.65;101750.78;5034337;28;20033;-78
2023/09/15 04:42:12;;;;;;;76.80;72.90;;;;;;;21.12;45.16;101746.69;5044690;28;20531;-78
2023/09/15 04:44:38;;;;;;;75.25;71.38;;;;;;;21.10;44.69;101752.44;5033772;28;20038;-78
2023/09/15 04:47:04;;;;;;;74.47;70.72;;;;;;;21.10;45.03;101749.72;5037999;28;20025;-76
2023/09/15 04:49:30;;;;;;;79.30;75.28;;;;;;;21.07;44.66;101753.03;5034010;28;20048;-79
2023/09/15 04:51:55;;;;;;;76.20;72.45;;;;;;;21.06;45.00;101751.38;5049851;28;20033;-79
2023/09/15 04:54:21;;;;;;;78.00;74.20;;;;;;;21.05;45.09;101757.19;5039288;28;20474;-79
2023/09/15 04:56:46;;;;;;;78.05;74.13;;;;;;;21.03;45.05;101751.97;5036507;28;20178;-79
2023/09/15 04:59:19;;;;;;;78.03;74.13;;;;;;;21.02;44.53;101755.03;5024453;28;20040;-78
2023/09/15 05:01:45;;;;;;;77.28;73.38;;;;;;;21.01;44.86;101761.59;5051556;28;20033;-78
2023/09/15 05:04:11;;;;;;;75.57;71.75;;;;;;;20.98;44.75;101754.75;5029750;28;20497;-79
2023/09/15 05:06:37;;;;;;;73.85;70.30;;;;;;;20.98;44.90;101760.25;5037334;28;20043;-78
2023/09/15 05:09:05;;;;;;;76.20;72.30;;;;;;;20.96;44.98;101762.47;5048988;28;20033;-79
2023/09/15 05:11:31;;;;;;;75.78;71.90;;;;;;;20.95;44.93;101760.84;5052222;28;20037;-79
2023/09/15 05:13:56;;;;;;;75.25;71.53;;;;;;;20.93;44.83;101768.53;5041084;28;20333;-76
2023/09/15 05:16:23;;;;;;;77.30;73.30;;;;;;;20.92;44.77;101764.97;5025912;28;20041;-78
2023/09/15 05:18:49;;;;;;;76.18;72.38;;;;;;;20.91;45.01;101773.50;5022346;28;20115;-78
2023/09/15 05:21:14;;;;;;;78.18;73.95;;;;;;;20.89;44.82;101771.06;5032493;28;20461;-80
2023/09/15 05:23:40;;;;;;;74.38;70.47;;;;;;;20.87;44.52;101770.50;5034509;28;20037;-79
2023/09/15 05:26:08;;;;;;;75.13;71.43;;;;;;;20.86;44.75;101770.78;5025211;28;20068;-79
2023/09/15 05:28:33;;;;;;;76.90;73.20;;;;;;;20.84;45.10;101764.75;5042772;28;20033;-79
2023/09/15 05:30:59;;;;;;;78.68;74.70;;;;;;;20.83;44.84;101765.88;5046601;28;20048;-80
2023/09/15 05:33:25;;;;;;;76.25;72.25;;;;;;;20.82;44.75;101764.25;5042919;28;20057;-79
2023/09/15 05:35:57;;;;;;;76.38;72.57;;;;;;;20.80;44.76;101766.47;5036916;28;20061;-79
2023/09/15 05:38:25;;;;;;;75.90;72.10;;;;;;;20.80;44.80;101769.22;5038371;28;20033;-79
2023/09/15 05:40:51;;;;;;;;;;;;;;;20.72;44.84;101771.44;5052102;28;20036;-78
2023/09/15 05:43:18;;;;;;;71.95;68.28;;;;;;;20.74;45.02;101776.66;5031856;28;19912;-79
2023/09/15 05:45:44;;;;;;;76.32;72.32;;;;;;;20.72;44.57;101774.19;5037656;28;20375;-79
2023/09/15 05:48:12;;;;;;;74.75;70.95;;;;;;;20.70;44.99;101775.59;5027618;28;20091;-77
2023/09/15 05:50:41;;;;;;;72.05;68.30;;;;;;;20.69;44.74;101766.53;5033031;28;20358;-78
2023/09/15 05:53:06;;;;;;;75.32;70.63;;;;;;;20.67;44.96;101768.75;5025079;28;20083;-80
2023/09/15 05:55:32;;;;;;;73.03;69.50;;;;;;;20.66;45.05;101772.59;5019775;28;20065;-78
2023/09/15 05:57:57;;;;;;;72.80;69.10;;;;;;;20.65;44.95;101770.13;5032838;28;20466;-78
2023/09/15 06:00:23;;;;;;;72.60;68.68;;;;;;;20.64;44.82;101774.00;5036446;28;20119;-79
2023/09/15 06:02:48;;;;;;;72.25;68.63;;;;;;;20.62;44.90;101770.72;5036165;28;20046;-79
2023/09/15 06:05:14;;;;;;;73.68;70.00;;;;;;;20.61;44.82;101783.59;5048608;28;20033;-79
2023/09/15 06:07:40;;;;;;;74.05;70.45;;;;;;;20.61;44.76;101782.78;5032910;28;20040;-79
2023/09/15 06:10:08;;;;;;;71.32;67.72;;;;;;;20.59;45.12;101785.84;5034209;28;20542;-79
2023/09/15 06:12:33;;;;;;;70.85;67.43;;;;;;;20.58;44.70;101783.34;5046420;28;20029;-80
2023/09/15 06:14:59;;;;;;;74.72;70.93;;;;;;;20.56;44.94;101786.38;5036800;28;20418;-80
2023/09/15 06:17:24;;;;;;;75.65;71.68;;;;;;;20.55;45.06;101783.94;5038471;28;20049;-79
2023/09/15 06:19:51;;;;;;;74.95;70.88;;;;;;;20.54;44.96;101785.84;5043008;28;20083;-79
2023/09/15 06:22:17;;;;;;;72.63;68.88;;;;;;;20.52;44.75;101782.53;5044396;28;20107;-78
2023/09/15 06:24:42;;;;;;;73.90;69.95;;;;;;;20.50;44.91;101777.31;5050081;28;20041;-80
2023/09/15 06:27:08;;;;;;;71.45;67.85;;;;;;;20.49;44.79;101785.88;5040409;28;20040;-80
2023/09/15 06:29:33;;;;;;;71.95;68.13;;;;;;;20.48;44.71;101775.97;5025970;28;20428;-78
2023/09/15 06:31:59;;;;;;;73.30;69.68;;;;;;;20.48;44.73;101775.97;5035825;28;20446;-78
2023/09/15 06:34:24;;;;;;;78.50;74.53;;;;;;;20.46;45.19;101778.19;5031394;28;20036;-79
2023/09/15 06:36:50;;;;;;;75.05;71.22;;;;;;;20.45;45.21;101776.56;5032138;28;20037;-78
2023/09/15 06:39:16;;;;;;;72.93;69.13;;;;;;;20.44;45.24;101772.19;5037839;28;20421;-77
2023/09/15 06:41:41;;;;;;;74.07;70.40;;;;;;;20.43;44.92;101768.59;5035889;28;20044;-81
2023/09/15 06:44:08;;;;;;;72.80;68.90;;;;;;;20.42;44.85;101766.97;5033027;28;20061;-78
2023/09/15 06:46:34;;;;;;;72.25;68.53;;;;;;;20.40;45.07;101769.16;5024952;28;20025;-79
2023/09/15 06:48:59;;;;;;;74.22;70.07;;;;;;;20.39;44.99;101769.47;5024559;28;20056;-79
2023/09/15 06:51:26;;;;;;;73.43;69.22;;;;;;;20.38;45.16;101767.81;5034955;28;20474;-78
2023/09/15 06:53:52;;;;;;;74.38;70.70;;;;;;;20.37;45.02;101766.19;5041493;28;20041;-79
2023/09/15 06:56:17;;;;;;;71.97;68.28;;;;;;;20.36;45.24;101767.25;5034158;28;20033;-78
2023/09/15 06:58:43;;;;;;;72.15;68.35;;;;;;;20.35;45.25;101766.44;5038218;28;20042;-80
2023/09/15 07:01:08;;;;;;;70.88;67.45;;;;;;;20.33;45.30;101765.91;5020951;28;20528;-79
2023/09/15 07:03:33;;;;;;;72.40;68.72;;;;;;;20.32;45.12;101761.53;5036820;28;20484;-79
2023/09/15 07:05:59;;;;;;;70.32;66.75;;;;;;;20.31;45.08;101760.72;5040377;28;20044;-80
2023/09/15 07:08:24;;;;;;;72.85;69.22;;;;;;;20.30;44.92;101763.75;5050575;28;20385;-79
2023/09/15 07:10:51;;;;;;;68.32;64.72;;;;;;;20.29;44.79;101760.19;5044248;28;20120;-78
2023/09/15 07:13:18;;;;;;;69.50;65.90;;;;;;;20.29;44.89;101756.63;5035662;28;20064;-78
2023/09/15 07:15:44;;;;;;;69.60;66.10;;;;;;;20.29;45.07;101756.63;5041864;28;20045;-79
2023/09/15 07:18:09;;;;;;;69.40;66.00;;;;;;;20.27;45.25;101762.38;5054495;28;20045;-79
2023/09/15 07:20:35;;;;;;;72.72;69.03;;;;;;;20.26;45.21;101749.78;5048600;28;20417;-80
2023/09/15 07:23:00;;;;;;;70.45;66.95;;;;;;;20.25;45.29;101756.34;5037611;28;20112;-78
2023/09/15 07:25:26;;;;;;;71.18;67.50;;;;;;;20.24;45.16;101746.50;5037082;28;20033;-78
2023/09/15 07:27:51;;;;;;;72.10;68.57;;;;;;;20.24;45.38;101749.25;5047367;28;20036;-78
2023/09/15 07:30:16;;;;;;;73.05;69.35;;;;;;;20.22;44.88;101745.94;5039534;28;20041;-79
2023/09/15 07:32:42;;;;;;;70.13;66.63;;;;;;;20.23;45.21;101742.09;5013292;28;20042;-80
2023/09/15 07:35:09;;;;;;;71.05;67.45;;;;;;;20.22;45.32;101739.66;5052224;28;20035;-80
2023/09/15 07:37:38;;;;;;;72.45;68.55;;;;;;;20.22;45.27;101747.88;5044447;28;20120;-80
2023/09/15 07:40:07;;;;;;;70.00;66.50;;;;;;;20.21;45.35;101738.84;5043931;28;20473;-78
2023/09/15 07:42:33;;;;;;;70.72;67.07;;;;;;;20.20;45.44;101745.41;5041442;28;20065;-79
2023/09/15 07:44:59;;;;;;;71.20;67.65;;;;;;;20.20;45.41;101742.66;5035202;28;20049;-79
2023/09/15 07:47:25;;;;;;;69.47;66.05;;;;;;;20.18;45.02;101744.06;5030008;28;20052;-78
2023/09/15 07:49:51;;;;;;;69.47;65.88;;;;;;;20.18;45.46;101739.38;5045231;28;20033;-78
2023/09/15 07:52:18;;;;;;;69.57;66.28;;;;;;;20.18;45.15;101741.31;5046420;28;20451;-79
2023/09/15 07:54:43;;;;;;;70.40;66.80;;;;;;;20.18;45.09;101735.81;5045276;28;20464;-79
2023/09/15 07:57:09;;;;;;;67.93;64.57;;;;;;;20.17;45.42;101743.25;5048930;28;20478;-79
2023/09/15 07:59:34;;;;;;;73.22;68.75;;;;;;;20.17;45.34;101736.94;5034712;28;20064;-79
2023/09/15 08:02:00;;;;;;;71.45;67.75;;;;;;;20.17;45.15;101739.69;5040158;28;20137;-79
2023/09/15 08:04:25;;;;;;;71.15;67.75;;;;;;;20.17;45.68;101740.50;5036876;28;20121;-78
2023/09/15 08:06:51;;;;;;;71.90;68.05;;;;;;;20.17;45.38;101734.19;5046945;28;20072;-78
2023/09/15 08:09:17;;;;;;;73.28;69.20;;;;;;;20.18;45.59;101735.81;5038675;28;20037;-79
2023/09/15 08:11:43;;;;;;;73.97;70.07;;;;;;;20.19;45.75;101734.75;5052195;28;20051;-78
2023/09/15 08:14:08;;;;;;;69.35;65.82;;;;;;;20.18;45.43;101724.84;5031550;28;20524;-79
2023/09/15 08:16:34;;;;;;;73.65;69.50;;;;;;;20.17;45.35;101725.97;5026007;28;20029;-76
2023/09/15 08:18:59;;;;;;;70.30;66.85;;;;;;;20.17;45.80;101721.28;5033309;28;20112;-78
2023/09/15 08:21:25;;;;;;;70.28;66.38;;;;;;;20.17;45.79;101726.78;5054088;28;20081;-79
2023/09/15 08:23:51;;;;;;;70.05;66.60;;;;;;;20.19;45.46;101723.75;5029375;28;20072;-78
2023/09/15 08:26:17;;;;;;;66.63;63.42;;;;;;;20.19;45.93;101724.56;5013668;28;20497;-79
2023/09/15 08:28:42;;;;;;;70.65;67.05;;;;;;;20.21;45.73;101718.78;5035885;28;20044;-78
2023/09/15 08:31:08;;;;;;;69.47;66.13;;;;;;;20.21;45.71;101719.63;5051926;28;20033;-80
2023/09/15 08:33:34;;;;;;;72.18;68.47;;;;;;;20.23;46.08;101716.59;5027507;28;20393;-79
2023/09/15 08:36:00;;;;;;;70.35;66.68;;;;;;;20.23;45.75;101720.16;5036203;28;20029;-77
2023/09/15 08:38:25;;;;;;;68.38;64.97;;;;;;;20.23;46.09;101722.88;5035067;28;20041;-78
2023/09/15 08:40:56;;;;;;;70.57;67.13;;;;;;;20.25;46.07;101722.63;5044913;28;20485;-79
2023/09/15 08:43:22;;;;;;;69.18;65.47;;;;;;;20.26;45.90;101718.75;5033550;28;20030;-81
2023/09/15 08:45:49;;;;;;;69.97;66.38;;;;;;;20.27;45.90;101715.75;5036336;28;20390;-80
2023/09/15 08:48:21;;;;;;;66.65;63.25;;;;;;;20.29;46.40;101713.53;5026706;28;20116;-78
2023/09/15 08:50:47;;;;;;;69.72;66.13;;;;;;;20.30;46.43;101717.91;5037500;28;20071;-78
2023/09/15 08:53:13;;;;;;;67.45;64.28;;;;;;;20.32;46.29;101717.63;5033737;28;20034;-79
2023/09/15 08:55:40;;;;;;;71.53;67.82;;;;;;;20.33;46.30;101711.03;5030358;28;20133;-80
2023/09/15 08:58:07;;;;;;;68.32;64.97;;;;;;;20.37;46.24;101714.03;5035411;28;20033;-81
2023/09/15 09:00:33;;;;;;;71.93;68.07;;;;;;;20.38;46.44;101707.44;5035193;28;20041;-78
2023/09/15 09:02:59;;;;;;;73.68;69.78;;;;;;;20.40;46.42;101703.31;5039896;28;20754;-79
2023/09/15 09:05:27;;;;;;;69.35;65.95;;;;;;;20.44;46.23;101701.63;5039574;28;20036;-79
2023/09/15 09:07:57;;;;;;;70.32;66.82;;;;;;;20.48;46.61;101704.63;5027428;28;20104;-78
2023/09/15 09:10:24;;;;;;;71.53;67.72;;;;;;;20.52;46.53;101698.28;5016708;28;20044;-78
2023/09/15 09:12:50;;;;;;;72.85;68.95;;;;;;;20.55;46.53;101713.38;5031750;28;20037;-79
2023/09/15 09:15:17;;;;;;;71.18;67.28;;;;;;;20.56;46.37;101698.53;5034917;28;20576;-78
2023/09/15 09:17:42;;;;;;;71.78;68.18;;;;;;;20.59;46.48;101703.47;5031833;28;20056;-78
2023/09/15 09:20:08;;;;;;;69.78;66.18;;;;;;;20.62;46.82;101699.34;5046572;28;20474;-75
2023/09/15 09:22:34;;;;;;;70.07;66.65;;;;;;;20.64;46.67;101697.94;5031932;28;20441;-79
2023/09/15 09:25:00;;;;;;;72.30;68.47;;;;;;;20.65;46.92;101694.09;5036463;28;20400;-78
2023/09/15 09:27:35;;;;;;;73.35;69.75;;;;;;;20.68;46.76;101700.94;5050701;28;20038;-76
2023/09/15 09:30:01;;;;;;;71.47;67.72;;;;;;;20.71;46.59;101700.34;5042779;28;20041;-74
2023/09/15 09:32:26;;;;;;;69.68;66.18;;;;;;;20.72;46.79;101713.78;5049244;28;20051;-75
2023/09/15 09:34:53;;;;;;;72.25;68.55;;;;;;;20.75;47.22;101709.66;5020600;28;20370;-73
2023/09/15 09:37:24;;;;;;;73.00;69.00;;;;;;;20.79;47.18;101707.13;5037038;28;20080;-77
2023/09/15 09:39:51;;;;;;;74.13;70.43;;;;;;;20.81;47.33;101699.44;5044535;28;20374;-79
2023/09/15 09:42:17;;;;;;;71.88;68.35;;;;;;;20.83;47.32;101695.28;5035408;28;20473;-76
2023/09/15 09:44:43;;;;;;;74.88;71.15;;;;;;;20.87;46.91;101698.31;5035886;28;20037;-75
2023/09/15 09:47:09;;;;;;;70.95;67.57;;;;;;;20.91;47.25;101693.84;5031462;28;20034;-75
2023/09/15 09:49:36;;;;;;;71.25;67.53;;;;;;;20.93;47.31;101695.19;5046117;28;20528;-77
2023/09/15 09:52:03;;;;;;;73.82;70.22;;;;;;;20.96;47.03;101699.28;5048569;28;20028;-76
2023/09/15 09:54:31;;;;;;;74.07;70.32;;;;;;;21.02;47.45;101694.59;5044084;28;20033;-79
2023/09/15 09:56:56;;;;;;;72.68;68.97;;;;;;;21.04;47.45;101695.09;5029304;28;20036;-79
2023/09/15 09:59:22;;;;;;;70.95;67.47;;;;;;;21.06;47.50;101701.13;5059180;28;20048;-77
2023/09/15 10:01:48;;;;;;;73.88;70.25;;;;;;;21.10;47.25;101688.47;5031779;28;20521;-77
2023/09/15 10:04:13;;;;;;;76.32;72.22;;;;;;;21.12;47.46;101689.00;5035422;28;20045;-76
2023/09/15 10:06:39;;;;;;;73.40;69.72;;;;;;;21.13;47.40;101685.13;5034163;28;20041;-77
2023/09/15 10:09:05;;;;;;;74.50;70.63;;;;;;;21.17;47.42;101684.25;5026231;28;20069;-77
2023/09/15 10:11:33;;;;;;;74.90;71.38;;;;;;;21.21;47.36;101678.97;5026514;28;20419;-76
2023/09/15 10:14:03;;;;;;;76.85;72.65;;;;;;;21.25;47.80;101681.97;5023703;28;20083;-77
2023/09/15 10:16:34;;;;;;;77.03;73.22;;;;;;;21.29;47.53;101672.03;5022970;28;20025;-77
2023/09/15 10:19:03;;;;;;;75.80;72.15;;;;;;;21.31;47.84;101669.81;5023003;28;20356;-77
2023/09/15 10:21:30;;;;;;;80.25;76.15;;;;;;;21.34;47.80;101655.47;5021007;28;20053;-77
2023/09/15 10:24:16;;;;;;;77.15;73.35;;;;;;;21.35;47.88;101662.63;5017759;28;20087;-76
2023/09/15 10:26:41;;;;;;;76.07;72.32;;;;;;;21.40;47.64;101659.84;5024102;28;20044;-78
2023/09/15 10:29:08;;;;;;;77.75;73.97;;;;;;;21.42;48.04;101652.13;5034010;28;20029;-80
2023/09/15 10:31:34;;;;;;;76.75;72.88;;;;;;;21.46;47.60;101653.16;5029765;28;20483;-79
2023/09/15 10:34:04;;;;;;;75.15;71.55;;;;;;;21.50;48.00;101643.22;5034606;28;20033;-80
2023/09/15 10:36:31;;;;;;;78.72;74.97;;;;;;;21.53;48.05;101645.38;5029381;28;20127;-80
2023/09/15 10:38:59;;;;;;;80.28;76.32;;;;;;;21.58;47.94;101652.75;5026295;28;20065;-80
2023/09/15 10:41:29;;;;;;;75.43;71.82;;;;;;;21.60;48.31;101640.34;5024555;28;20033;-79
2023/09/15 10:43:55;;;;;;;79.93;75.85;;;;;;;21.64;48.29;101643.31;5046424;28;20033;-79
2023/09/15 10:46:21;;;;;;;77.32;73.70;;;;;;;21.67;48.25;101637.25;5030959;28;20026;-79
2023/09/15 10:48:48;;;;;;;78.32;74.53;;;;;;;21.71;48.00;101635.50;5024312;28;20500;-80
2023/09/15 10:51:18;;;;;;;78.18;74.38;;;;;;;21.74;47.89;101634.91;5037020;28;20064;-76
2023/09/15 10:53:56;;;;;;;77.47;73.78;;;;;;;21.78;48.48;101626.91;5042064;28;20531;-78
2023/09/15 10:56:22;;;;;;;82.10;78.00;;;;;;;21.78;47.77;101635.16;5033179;28;20037;-81
2023/09/15 10:58:48;;;;;;;79.78;75.90;;;;;;;21.82;48.32;101630.69;5040405;28;20036;-80
2023/09/15 11:01:17;;;;;;;77.93;73.88;;;;;;;21.85;48.03;101627.38;5040490;28;20078;-79
2023/09/15 11:03:43;;;;;;;79.00;75.20;;;;;;;21.87;48.33;101622.34;5025991;28;20460;-81
2023/09/15 11:06:18;;;;;;;77.03;73.43;;;;;;;21.91;48.41;101619.84;5032144;28;20037;-80
2023/09/15 11:08:44;;;;;;;78.13;74.50;;;;;;;21.94;47.83;101619.25;5031090;28;20017;-81